TimeMDT,TemperatureF,Dew PointF,Humidity,Sea Level PressureIn,VisibilityMPH,Wind Direction,Wind SpeedMPH,Gust SpeedMPH,PrecipitationIn,Events,Conditions,WindDirDegrees,DateUTC
12:53 AM,57.9,30.9,36,29.83,10.0,SSW,3.5,-,N/A,,Clear,210,2013-09-21 06:53:00
1:53 AM,53.1,34.0,48,29.82,10.0,Calm,Calm,-,N/A,,Clear,0,2013-09-21 07:53:00
2:53 AM,55.9,30.9,39,29.80,10.0,Calm,Calm,-,N/A,,Clear,0,2013-09-21 08:53:00
3:53 AM,52.0,33.1,49,29.81,10.0,SSE,3.5,-,N/A,,Clear,160,2013-09-21 09:53:00
4:53 AM,55.0,32.0,42,29.80,10.0,SW,5.8,-,N/A,,Clear,220,2013-09-21 10:53:00
5:53 AM,52.0,34.0,50,29.81,10.0,South,5.8,-,N/A,,Clear,170,2013-09-21 11:53:00
6:53 AM,54.0,34.0,47,29.81,10.0,South,3.5,-,N/A,,Clear,190,2013-09-21 12:53:00
7:53 AM,55.9,35.1,45,29.83,10.0,South,11.5,-,N/A,,Clear,190,2013-09-21 13:53:00
8:53 AM,63.0,37.0,38,29.82,10.0,SSW,8.1,-,N/A,,Clear,200,2013-09-21 14:53:00
9:53 AM,69.1,39.9,35,29.79,10.0,SW,12.7,20.7,N/A,,Clear,220,2013-09-21 15:53:00
10:53 AM,71.1,39.9,32,29.80,10.0,SW,19.6,26.5,N/A,,Clear,230,2013-09-21 16:53:00
11:53 AM,73.9,39.0,28,29.76,10.0,SW,20.7,29.9,N/A,,Clear,220,2013-09-21 17:53:00
12:53 PM,75.0,37.0,25,29.74,10.0,SSW,20.7,38.0,N/A,,Clear,200,2013-09-21 18:53:00
1:53 PM,75.9,39.0,26,29.72,10.0,South,26.5,39.1,N/A,,Clear,180,2013-09-21 19:53:00
2:53 PM,77.0,39.9,26,29.68,10.0,SSW,26.5,38.0,N/A,,Partly Cloudy,210,2013-09-21 20:53:00
3:53 PM,77.0,37.0,24,29.67,10.0,SW,29.9,41.4,N/A,,Clear,220,2013-09-21 21:53:00
4:53 PM,75.9,35.1,23,29.64,10.0,SSW,25.3,40.3,N/A,,Clear,210,2013-09-21 22:53:00
5:53 PM,75.0,33.1,22,29.62,10.0,SW,25.3,36.8,N/A,,Clear,220,2013-09-21 23:53:00
6:53 PM,72.0,32.0,23,29.61,10.0,SW,23.0,34.5,N/A,,Clear,220,2013-09-22 00:53:00
7:53 PM,70.0,30.0,23,29.61,10.0,SSW,16.1,32.2,N/A,,Clear,200,2013-09-22 01:53:00
8:53 PM,69.1,28.9,22,29.59,10.0,South,15.0,26.5,N/A,,Clear,180,2013-09-22 02:53:00
9:53 PM,68.0,28.9,23,29.56,10.0,South,16.1,24.2,N/A,,Clear,190,2013-09-22 03:53:00
10:53 PM,66.9,28.9,24,29.55,10.0,South,18.4,31.1,N/A,,Clear,190,2013-09-22 04:53:00
11:53 PM,66.9,28.0,23,29.53,10.0,South,15.0,33.4,N/A,,Clear,190,2013-09-22 05:53:00